WetterOnline ( https://www.wetteronline.at )

Wetter aktuell Lübeck

Aktuelles Wetter: Lübeck/Blankensee (15m)

6-stündlich | Neueste Meldungen
Ortszeit Temperatur Wetter
Sa, 22.02. 1:00 6.9° C bewölkt
Fr, 21.02. 19:00 6.9° C Sprühregen
Fr, 21.02. 13:00 7.1° C bewölkt
Fr, 21.02. 7:00 3.9° C wolkig
Fr, 21.02. 1:00 5.4° C Sprühregen
Do, 20.02. 19:00 7.9° C bewölkt
Do, 20.02. 13:00 6.5° C bedeckt
Do, 20.02. 7:00 2.6° C Sprühregen
Ortszeit Temperatur Wetter
Sa, 22.02. 6:30 7.9° C bedeckt
Sa, 22.02. 6:20 7.9° C bedeckt
Sa, 22.02. 6:10 8.0° C bedeckt
Sa, 22.02. 6:00 7.9° C bedeckt
Sa, 22.02. 5:50 7.9° C bedeckt
Sa, 22.02. 5:40 7.9° C bedeckt
Sa, 22.02. 5:30 7.8° C bedeckt
Sa, 22.02. 5:00 7.9° C bedeckt
Fr, 21.02. 19:50 6° C Sprühregen
Ortszeit Relative Feuchte Sichtweite
Sa, 22.02. 1:00 86% 30 km
Fr, 21.02. 19:00 76% 27 km
Fr, 21.02. 13:00 76% 27 km
Fr, 21.02. 7:00 88% 27 km
Fr, 21.02. 1:00 90% 18 km
Do, 20.02. 19:00 81% 55 km
Do, 20.02. 13:00 95% 25 km
Do, 20.02. 7:00 96% 9 km
Ortszeit Relative Feuchte Sichtweite
Sa, 22.02. 6:30 74% 35 km
Sa, 22.02. 6:20 74% -
Sa, 22.02. 6:10 74% -
Sa, 22.02. 6:00 74% 35 km
Sa, 22.02. 5:50 74% -
Sa, 22.02. 5:40 75% -
Sa, 22.02. 5:30 76% 35 km
Sa, 22.02. 5:00 76% 35 km
Fr, 21.02. 19:50 87% >10 km
Ortszeit Niederschlagsmenge Niederschlagsart
Sa, 22.02. 1:00 0.3 l/m2 in 6 Std. Regen
Fr, 21.02. 19:00 0.5 l/m2 in 12 Std. Sprühregen
Fr, 21.02. 13:00 0.5 l/m2 in 6 Std. Regen
Fr, 21.02. 7:00 5 l/m2 in 12 Std. Regen
Fr, 21.02. 1:00 2 l/m2 in 6 Std. Regen
Do, 20.02. 19:00 1 l/m2 in 12 Std. Regen
Do, 20.02. 13:00 1 l/m2 in 6 Std. Regen
Do, 20.02. 7:00 0.1 l/m2 in 12 Std. Regen
Ortszeit Niederschlagsmenge Niederschlagsart
Sa, 22.02. 6:30 0.0 l/m2 in 1 Std. -
Sa, 22.02. 6:20 keine Meldung -
Sa, 22.02. 6:10 keine Meldung -
Sa, 22.02. 6:00 0.0 l/m2 in 1 Std. -
Sa, 22.02. 5:50 keine Meldung -
Sa, 22.02. 5:40 keine Meldung -
Sa, 22.02. 5:30 0.0 l/m2 in 1 Std. -
Sa, 22.02. 5:00 0.0 l/m2 in 1 Std. -
Fr, 21.02. 19:50 keine Meldung -
Ortszeit Stärke Spitze Richtung
km/h Bft. km/h Grad Sektor
Sa, 22.02. 1:00 11 2 32 200° S
Fr, 21.02. 19:00 13 3 44 220° SW
Fr, 21.02. 13:00 25 4 47 240° SW
Fr, 21.02. 7:00 20 4 56 250° W
Fr, 21.02. 1:00 20 4 56 260° W
Do, 20.02. 19:00 15 3 33 180° S
Do, 20.02. 13:00 13 3 31 190° S
Do, 20.02. 7:00 9 2 22 170° S
Ortszeit Stärke Spitze Richtung
km/h Bft. km/h Grad Sektor
Sa, 22.02. 6:30 18 3 47 230° SW
Sa, 22.02. 6:20 18 3 - 230° SW
Sa, 22.02. 6:10 17 3 - 230° SW
Sa, 22.02. 6:00 14 3 40 220° SW
Sa, 22.02. 5:50 14 3 - 220° SW
Sa, 22.02. 5:40 14 3 - 220° SW
Sa, 22.02. 5:30 17 3 37 220° SW
Sa, 22.02. 5:00 14 3 40 220° SW
Fr, 21.02. 19:50 28 4 - 230° SW
Ortszeit Untergrenze Bedeckung Gattung
total tief tief mittel hoch
Sa, 22.02. 1:00 750 m 7/8 8/8 - - -
Fr, 21.02. 19:00 720 m 7/8 7/8 - - -
Fr, 21.02. 13:00 690 m 7/8 7/8 - - -
Fr, 21.02. 7:00 1500 m 5/8 5/8 - - -
Fr, 21.02. 1:00 480 m 8/8 8/8 - - -
Do, 20.02. 19:00 1080 m 8/8 7/8 - - -
Do, 20.02. 13:00 210 m 8/8 8/8 - - -
Do, 20.02. 7:00 210 m 8/8 8/8 - - -
Ortszeit Bedeckungsgrad in Achtel und Wolkenuntergrenze
Sa, 22.02. 6:30 8(690m)
Sa, 22.02. 6:20 8(690m)
Sa, 22.02. 6:10 8(690m)
Sa, 22.02. 6:00 8(660m)
Sa, 22.02. 5:50 8(660m)
Sa, 22.02. 5:40 8(660m)
Sa, 22.02. 5:30 8(630m)
Sa, 22.02. 5:00 8(630m)
Fr, 21.02. 19:50 3-4(540m) 5-7(1290m)
Ortszeit Luftdruck NN (hPa) Tendenz (hPa in 3 Std.)
Sa, 22.02. 1:00 1016 - 2,3
Fr, 21.02. 19:00 1019 - 0,2
Fr, 21.02. 13:00 1019 + 1,3
Fr, 21.02. 7:00 1014 + 3,7
Fr, 21.02. 1:00 1006 + 2,6
Do, 20.02. 19:00 1006 - 3,2
Do, 20.02. 13:00 1012 - 2,0
Do, 20.02. 7:00 1015 - 1,6
Ortszeit Luftdruck NN (hPa) Tendenz (hPa in 3 Std.)
Sa, 22.02. 6:30 1011 - 2,6
Sa, 22.02. 6:20 1011 keine Meldung
Sa, 22.02. 6:10 1011 keine Meldung
Sa, 22.02. 6:00 1012 - 2,7
Sa, 22.02. 5:50 1012 keine Meldung
Sa, 22.02. 5:40 1012 keine Meldung
Sa, 22.02. 5:30 1012 - 3,3
Sa, 22.02. 5:00 1013 - 3,3
Fr, 21.02. 19:50 1019 keine Meldung
Ortszeit Schneehöhe (cm)
Sa, 22.02. 1:00 0
Fr, 21.02. 19:00 0
Fr, 21.02. 13:00 0
Fr, 21.02. 7:00 0
Fr, 21.02. 1:00 0
Do, 20.02. 19:00 0
Do, 20.02. 13:00 0
Do, 20.02. 7:00 0
Ortszeit Schneehöhe (cm)
Sa, 22.02. 6:30 0
Sa, 22.02. 6:20 0
Sa, 22.02. 6:10 0
Sa, 22.02. 6:00 0
Sa, 22.02. 5:50 0
Sa, 22.02. 5:40 0
Sa, 22.02. 5:30 0
Sa, 22.02. 5:00 0
Fr, 21.02. 19:50 -
Link zu dieser Seite / Seite empfehlen

Das Wetter in ...